createdAt,value
2022-07-29T00:01:59.529Z,22.75
2022-07-29T00:07:02.851Z,22.67
2022-07-29T00:12:06.322Z,22.63
2022-07-29T00:17:12.653Z,22.53
2022-07-29T00:22:22.154Z,22.44
2022-07-29T00:27:25.032Z,22.38
2022-07-29T00:32:29.265Z,22.33
2022-07-29T00:37:32.108Z,22.29
2022-07-29T00:42:51.013Z,22.20
2022-07-29T00:47:53.812Z,22.15
2022-07-29T00:52:56.886Z,22.10
2022-07-29T00:58:00.847Z,22.05
2022-07-29T01:03:04.618Z,22.03
2022-07-29T01:08:08.899Z,22.00
2022-07-29T01:13:13.009Z,21.97
2022-07-29T01:18:35.110Z,21.91
2022-07-29T01:24:28.300Z,21.87
2022-07-29T01:29:42.637Z,21.80
2022-07-29T01:35:02.953Z,21.73
2022-07-29T01:40:12.120Z,21.65
2022-07-29T01:46:01.899Z,21.56
2022-07-29T01:51:28.531Z,21.51
2022-07-29T01:56:34.749Z,21.47
2022-07-29T02:01:40.763Z,21.42
2022-07-29T02:06:45.464Z,21.36
2022-07-29T02:11:54.473Z,21.31
2022-07-29T02:16:59.431Z,21.28
2022-07-29T02:22:03.067Z,21.23
2022-07-29T02:27:06.044Z,21.19
2022-07-29T02:32:12.246Z,21.16
2022-07-29T02:37:18.079Z,21.11
2022-07-29T02:42:25.052Z,21.07
2022-07-29T02:47:41.525Z,21.04
2022-07-29T02:53:13.122Z,20.99
2022-07-29T02:58:38.584Z,20.92
2022-07-29T03:03:45.712Z,20.81
2022-07-29T03:08:50.544Z,20.75
2022-07-29T03:13:54.012Z,20.65
2022-07-29T03:18:57.275Z,20.56
2022-07-29T03:24:00.122Z,20.48
2022-07-29T03:29:03.111Z,20.38
2022-07-29T03:34:05.957Z,20.27
2022-07-29T03:39:11.904Z,20.19
2022-07-29T03:44:16.877Z,20.13
2022-07-29T03:49:22.881Z,20.09
2022-07-29T03:54:25.835Z,20.12
2022-07-29T03:59:31.534Z,20.16
2022-07-29T04:04:36.252Z,20.22
2022-07-29T04:09:39.241Z,20.29
2022-07-29T04:14:44.856Z,20.34
2022-07-29T04:19:47.703Z,20.40
2022-07-29T04:24:50.506Z,20.42
2022-07-29T04:29:56.744Z,20.51
2022-07-29T04:35:00.400Z,20.59
2022-07-29T04:40:04.615Z,20.69
2022-07-29T04:45:08.009Z,20.82
2022-07-29T04:50:11.671Z,20.91
2022-07-29T04:55:14.525Z,21.01
2022-07-29T05:00:17.953Z,21.11
2022-07-29T05:05:20.848Z,21.17
2022-07-29T05:10:24.146Z,21.25
2022-07-29T05:15:26.964Z,21.35
2022-07-29T05:20:31.605Z,21.48
2022-07-29T05:25:43.433Z,21.63
2022-07-29T05:30:48.160Z,21.80
2022-07-29T05:35:50.992Z,21.97
2022-07-29T05:40:53.758Z,22.18
2022-07-29T05:45:57.335Z,22.40
2022-07-29T05:51:00.273Z,22.63
2022-07-29T05:56:06.664Z,22.87
2022-07-29T06:01:09.461Z,23.09
2022-07-29T06:06:12.407Z,23.33
2022-07-29T06:11:15.205Z,23.59
2022-07-29T06:16:28.885Z,23.85
2022-07-29T06:21:33.402Z,24.14
2022-07-29T06:26:39.741Z,24.40
2022-07-29T06:31:43.006Z,24.65
2022-07-29T06:36:46.022Z,24.87
2022-07-29T06:41:51.572Z,25.04
2022-07-29T06:46:55.771Z,25.21
2022-07-29T06:51:58.649Z,25.38
2022-07-29T06:57:01.408Z,25.58
2022-07-29T07:02:04.412Z,25.76
2022-07-29T07:07:07.276Z,25.89
2022-07-29T07:12:10.400Z,25.94
2022-07-29T07:17:13.122Z,25.98
2022-07-29T07:22:15.985Z,26.04
2022-07-29T07:27:18.938Z,26.18
2022-07-29T07:32:21.817Z,26.38
2022-07-29T07:37:25.841Z,26.51
2022-07-29T07:42:29.136Z,26.65
2022-07-29T07:47:32.147Z,26.86
2022-07-29T07:52:51.714Z,27.11
2022-07-29T07:57:55.860Z,27.28
2022-07-29T08:02:58.755Z,27.52
2022-07-29T08:08:01.621Z,27.63
2022-07-29T08:13:07.641Z,27.85
2022-07-29T08:18:10.797Z,28.02
2022-07-29T08:23:13.581Z,28.29
2022-07-29T08:28:16.801Z,28.47
2022-07-29T08:33:19.643Z,28.75
2022-07-29T08:38:22.668Z,29.14
2022-07-29T08:43:26.645Z,29.28
2022-07-29T08:48:29.465Z,29.42
2022-07-29T08:53:33.238Z,29.41
2022-07-29T08:58:36.851Z,29.55
2022-07-29T09:03:42.566Z,29.74
2022-07-29T09:08:47.631Z,29.99
2022-07-29T09:13:50.941Z,30.09
2022-07-29T09:18:53.817Z,30.23
2022-07-29T09:24:12.765Z,30.38
2022-07-29T09:29:19.977Z,30.43
2022-07-29T09:34:29.515Z,30.60
2022-07-29T09:39:38.233Z,30.85
2022-07-29T09:44:50.334Z,31.08
2022-07-29T09:49:59.366Z,31.28
2022-07-29T09:55:17.847Z,31.33
2022-07-29T10:00:24.017Z,31.25
2022-07-29T10:05:36.618Z,31.45
2022-07-29T10:10:43.142Z,31.66
2022-07-29T10:15:47.366Z,31.75
2022-07-29T10:20:51.104Z,31.95
2022-07-29T10:25:54.338Z,32.06
2022-07-29T10:31:06.444Z,32.28
2022-07-29T10:37:06.462Z,32.58
2022-07-29T10:42:34.359Z,32.92
2022-07-29T10:47:38.137Z,32.95
2022-07-29T10:53:04.913Z,32.81
2022-07-29T10:58:24.695Z,32.92
2022-07-29T11:03:49.266Z,32.76
2022-07-29T11:09:35.309Z,32.68
2022-07-29T11:14:53.239Z,32.78
2022-07-29T11:20:45.786Z,32.56
2022-07-29T11:26:28.315Z,32.26
2022-07-29T11:31:49.440Z,32.14
2022-07-29T11:37:13.662Z,32.41
2022-07-29T11:42:28.276Z,32.87
2022-07-29T11:47:39.700Z,33.19
2022-07-29T11:52:49.891Z,33.54
2022-07-29T11:58:03.961Z,33.74
2022-07-29T12:03:10.451Z,33.99
2022-07-29T12:08:20.910Z,34.17
2022-07-29T12:13:37.408Z,34.27
2022-07-29T12:18:40.864Z,34.09
2022-07-29T12:23:55.288Z,34.15
2022-07-29T12:28:58.336Z,34.47
2022-07-29T12:34:05.369Z,34.09
2022-07-29T12:39:10.135Z,34.12
2022-07-29T12:44:13.122Z,34.47
2022-07-29T12:49:24.092Z,34.86
2022-07-29T12:54:27.255Z,35.05
2022-07-29T12:59:30.138Z,35.22
2022-07-29T13:04:36.625Z,35.34
2022-07-29T13:09:42.944Z,35.62
2022-07-29T13:14:48.997Z,35.62
2022-07-29T13:19:54.484Z,35.47
2022-07-29T13:25:07.635Z,35.11
2022-07-29T13:30:11.675Z,35.26
2022-07-29T13:35:14.615Z,35.52
2022-07-29T13:40:17.396Z,35.72
2022-07-29T13:45:20.275Z,35.40
2022-07-29T13:50:23.142Z,34.92
2022-07-29T13:55:26.671Z,34.73
2022-07-29T14:00:29.635Z,34.77
2022-07-29T14:05:32.470Z,34.82
2022-07-29T14:10:35.252Z,34.94
2022-07-29T14:15:39.392Z,35.13
2022-07-29T14:20:42.453Z,35.54
2022-07-29T14:25:45.302Z,35.87
2022-07-29T14:30:48.782Z,35.99
2022-07-29T14:35:51.829Z,36.14
2022-07-29T14:40:54.624Z,36.05
2022-07-29T14:46:02.881Z,36.14
2022-07-29T14:51:08.815Z,36.18
2022-07-29T14:56:35.427Z,36.38
2022-07-29T15:01:34.627Z,36.39
2022-07-29T15:06:37.507Z,36.48
2022-07-29T15:11:40.323Z,36.64
2022-07-29T15:16:46.486Z,36.72
2022-07-29T15:21:51.183Z,36.78
2022-07-29T15:26:54.739Z,36.68
2022-07-29T15:31:58.078Z,36.28
2022-07-29T15:37:01.669Z,35.76
2022-07-29T15:42:04.977Z,35.30
2022-07-29T15:47:07.920Z,35.22
2022-07-29T15:52:11.331Z,35.31
2022-07-29T15:57:15.402Z,35.56
2022-07-29T16:02:18.233Z,35.76
2022-07-29T16:07:21.255Z,35.74
2022-07-29T16:12:26.930Z,35.59
2022-07-29T16:17:29.895Z,35.45
2022-07-29T16:22:32.801Z,35.15
2022-07-29T16:27:37.771Z,34.85
2022-07-29T16:32:41.100Z,34.52
2022-07-29T16:37:43.943Z,34.17
2022-07-29T16:42:47.474Z,33.86
2022-07-29T16:47:50.623Z,33.73
2022-07-29T16:52:54.208Z,33.77
2022-07-29T16:57:57.828Z,33.79
2022-07-29T17:03:00.664Z,33.67
2022-07-29T17:08:03.698Z,33.50
2022-07-29T17:13:06.526Z,33.31
2022-07-29T17:18:13.246Z,33.04
2022-07-29T17:23:15.986Z,32.76
2022-07-29T17:28:18.886Z,32.45
2022-07-29T17:33:21.670Z,32.13
2022-07-29T17:38:24.505Z,31.80
2022-07-29T17:43:27.265Z,31.48
2022-07-29T17:48:30.212Z,31.15
2022-07-29T17:53:33.096Z,30.91
2022-07-29T17:58:35.975Z,30.66
2022-07-29T18:03:38.879Z,30.43
2022-07-29T18:08:41.908Z,30.21
2022-07-29T18:13:44.881Z,29.98
2022-07-29T18:18:47.873Z,29.75
2022-07-29T18:23:52.703Z,29.56
2022-07-29T18:28:55.450Z,29.43
2022-07-29T18:34:00.085Z,29.27
2022-07-29T18:39:03.320Z,29.12
2022-07-29T18:44:06.124Z,28.94
2022-07-29T18:49:09.329Z,28.74
2022-07-29T18:54:12.940Z,28.60
2022-07-29T18:59:17.236Z,28.46
2022-07-29T19:04:20.034Z,28.35
2022-07-29T19:09:22.906Z,28.25
2022-07-29T19:14:25.817Z,28.19
2022-07-29T19:19:28.682Z,28.11
2022-07-29T19:24:31.455Z,28.06
2022-07-29T19:29:35.355Z,27.94
2022-07-29T19:34:38.402Z,27.78
2022-07-29T19:39:41.229Z,27.72
2022-07-29T19:44:44.065Z,27.58
2022-07-29T19:49:46.854Z,27.46
2022-07-29T19:54:49.700Z,27.33
2022-07-29T19:59:52.972Z,27.25
2022-07-29T20:04:55.780Z,27.14
2022-07-29T20:09:58.748Z,27.05
2022-07-29T20:15:02.017Z,27.03
2022-07-29T20:20:06.253Z,26.94
2022-07-29T20:25:10.111Z,26.90
2022-07-29T20:30:14.220Z,26.90
2022-07-29T20:35:17.047Z,26.88
2022-07-29T20:40:23.260Z,26.80
2022-07-29T20:45:26.506Z,26.67
2022-07-29T20:50:29.249Z,26.65
2022-07-29T20:55:32.938Z,26.61
2022-07-29T21:00:35.920Z,26.54
2022-07-29T21:05:39.005Z,26.45
2022-07-29T21:10:45.838Z,26.32
2022-07-29T21:15:50.212Z,26.17
2022-07-29T21:20:55.523Z,26.10
2022-07-29T21:25:58.992Z,25.90
2022-07-29T21:31:06.833Z,25.76
2022-07-29T21:36:46.124Z,25.65
2022-07-29T21:41:35.314Z,25.53
2022-07-29T21:46:38.369Z,25.50
2022-07-29T21:51:41.408Z,25.42
2022-07-29T21:56:44.243Z,25.35
2022-07-29T22:01:54.185Z,25.30
2022-07-29T22:06:58.811Z,25.21
2022-07-29T22:12:02.711Z,25.17
2022-07-29T22:17:05.559Z,25.15
2022-07-29T22:22:08.599Z,25.08
2022-07-29T22:27:11.791Z,25.03
2022-07-29T22:32:14.594Z,24.99
2022-07-29T22:37:17.634Z,24.85
2022-07-29T22:42:20.474Z,24.68
2022-07-29T22:47:38.712Z,24.53
2022-07-29T22:52:47.157Z,24.43
2022-07-29T22:57:50.430Z,24.38
2022-07-29T23:02:53.180Z,24.27
2022-07-29T23:07:56.113Z,24.19
2022-07-29T23:12:58.937Z,24.09
2022-07-29T23:18:01.841Z,24.08
2022-07-29T23:23:04.979Z,24.10
2022-07-29T23:28:11.631Z,24.08
2022-07-29T23:33:16.159Z,24.01
2022-07-29T23:38:19.035Z,23.94
2022-07-29T23:43:21.743Z,23.86
2022-07-29T23:48:24.798Z,23.81
2022-07-29T23:53:28.604Z,23.72
2022-07-29T23:58:32.023Z,23.66
